Nearby METAR Reports

 

KMQS - Coatesville, Pennsylvania, USA
Distance from station: ENE 6mi, 10km
Updated: Thu, 21-Sep-2017 1:15pm EDT
Clear
Clear
 Wind from N
Wind: N 6 mph , 9 km/h, Gust: 13 mph , 20 km/h
Temperature: 81°F , 27°C
Heat Index: 83°F , 28°C
Dew Point: 64°F , 18°C
Humidity: 58%
Barometer: 30.06 inHg , 1017.9 hPa
Clouds: Clear
Visibility: 10 miles , 16 km
2017/09/21 17:15 KMQS 211715Z AUTO 01005G11KT 10SM CLR 27/18 A3006 RMK AO2
KLNS - Lancaster, Pennsylvania, USA
Distance from station: NW 21mi, 33km
Updated: Thu, 21-Sep-2017 12:53pm EDT
Clear
Clear
 Wind from varies
Wind: varies 6 mph , 9 km/h
Temperature: 82°F , 28°C
Heat Index: 84°F , 29°C
Dew Point: 66°F , 19°C
Humidity: 58%
Barometer: 30.05 inHg , 1017.6 hPa
Clouds: Clear
Visibility: 10 miles , 16 km
2017/09/21 16:53 KLNS 211653Z VRB05KT 10SM CLR 28/19 A3005 RMK AO2 SLP173 T02780189
 
KILG - Wilmington, Delaware, USA
Distance from station: SE 28mi, 45km
Updated: Thu, 21-Sep-2017 12:51pm EDT
Clear
Clear
 Wind from NNE
Wind: NNE 8 mph , 13 km/h
Temperature: 88°F , 31°C
Heat Index: 89°F , 32°C
Dew Point: 63°F , 17°C
Humidity: 43%
Barometer: 30.03 inHg , 1016.9 hPa
Clouds: Clear
Visibility: 10 miles , 16 km
2017/09/21 16:51 KILG 211651Z 02007KT 10SM CLR 31/17 A3003 RMK AO2 SLP166 T03060172
KRDG - Reading, Pennsylvania, USA
Distance from station: N 29mi, 47km
Updated: Thu, 21-Sep-2017 12:54pm EDT
Clear
Clear
 Wind from N
Wind: N 8 mph , 13 km/h
Temperature: 82°F , 28°C
Heat Index: 84°F , 29°C
Dew Point: 66°F , 19°C
Humidity: 58%
Barometer: 30.03 inHg , 1016.9 hPa
Clouds: Clear
Visibility: 10 miles , 16 km
2017/09/21 16:54 KRDG 211654Z AUTO 01007KT 350V060 10SM CLR 28/19 A3003 RMK AO2 SLP171 T02830189
 
KPTW - Pottstown, Pennsylvania, USA
Distance from station: NE 30mi, 48km
Updated: Thu, 21-Sep-2017 12:54pm EDT
Few Clouds
Few Clouds
 Wind from N
Wind: N 6 mph , 9 km/h
Temperature: 81°F , 27°C
Heat Index: 83°F , 28°C
Dew Point: 64°F , 18°C
Humidity: 58%
Barometer: 30.05 inHg , 1017.6 hPa
Clouds: Few Clouds
Visibility: 10 miles , 16 km
Cloud details: Few Clouds 4200 ft
2017/09/21 16:54 KPTW 211654Z AUTO 36005KT 10SM FEW042 27/18 A3005 RMK AO2 SLP171 T02720178